Time;durP1;ratioP1;P1;durP2;ratioP2;P2;SDS_P1;SDS_P2;PMS_P1;PMS_P2;Temp;Humidity;BMP_temperature;BMP_pressure;BME280_temperature;BME280_humidity;BME280_pressure;Samples;Min_cycle;Max_cycle;Signal;HPM_P1;HPM_P2
2021/03/23 00:01:44;;;;;;;;;;;;;;;9.49;54.96;101885.19;5019716;28;7788;-78
2021/03/23 00:04:13;;;;;;;;;;;;;;;9.49;54.73;101894.69;4995519;28;7266;-78
2021/03/23 00:06:39;;;;;;;;;;;;;;;9.47;54.93;101894.63;5019695;28;6896;-78
2021/03/23 00:09:05;;;;;;;;;;;;;;;9.45;54.87;101886.78;5011768;28;6803;-79
2021/03/23 00:11:34;;;;;;;;;;;;;;;9.44;55.11;101895.38;5006234;28;7405;-79
2021/03/23 00:14:00;;;;;;;;;;;;;;;9.44;54.92;101891.88;5008449;28;7535;-79
2021/03/23 00:16:27;;;;;;;;;;;;;;;9.42;55.24;101897.00;5006873;28;6800;-78
2021/03/23 00:18:53;;;;;;;;;;;;;;;9.40;55.12;101893.44;5021081;28;7230;-78
2021/03/23 00:21:19;;;;;;;;;;;;;;;9.39;54.90;101899.44;5006379;28;6787;-78
2021/03/23 00:23:44;;;;;;;;;;;;;;;9.38;55.36;101894.19;5002591;28;7202;-78
2021/03/23 00:26:11;;;;;;;;;;;;;;;9.37;55.38;101887.22;4989455;28;6784;-78
2021/03/23 00:28:37;;;;;;;;;;;;;;;9.37;55.01;101892.41;4997536;28;7455;-78
2021/03/23 00:31:02;;;;;;;;;;;;;;;9.35;55.55;101886.25;5002693;28;7320;-78
2021/03/23 00:33:28;;;;;;;;;;;;;;;9.34;55.30;101893.16;4995828;28;7119;-78
2021/03/23 00:35:59;;;;;;;;;;;;;;;9.33;55.36;101900.84;4997866;28;7367;-79
2021/03/23 00:38:25;;;;;;;;;;;;;;;9.32;55.70;101897.38;5005058;28;7485;-79
2021/03/23 00:40:51;;;;;;;;;;;;;;;9.32;55.58;101888.72;4991882;28;8531;-79
2021/03/23 00:43:16;;;;;;;;;;;;;;;9.30;55.42;101890.34;5006867;28;7011;-79
2021/03/23 00:45:42;;;;;;;;;;;;;;;9.26;55.70;101886.72;5004097;28;8566;-78
2021/03/23 00:48:08;;;;;;;;;;;;;;;9.26;55.32;101891.91;4990558;28;6800;-79
2021/03/23 00:50:34;;;;;;;;;;;;;;;9.27;55.75;101890.22;4995984;28;6846;-79
2021/03/23 00:53:00;;;;;;;;;;;;;;;9.26;55.64;101904.00;5008175;28;8823;-79
2021/03/23 00:55:25;;;;;;;;;;;;;;;9.25;55.44;101892.75;4990978;28;8445;-79
2021/03/23 00:57:51;;;;;;;;;;;;;;;9.24;55.48;101896.16;5022639;28;7695;-79
2021/03/23 01:00:18;;;;;;;;;;;;;;;9.23;55.97;101891.78;5011388;28;7261;-79
2021/03/23 01:02:44;;;;;;;;;;;;;;;9.22;55.73;101892.59;5005786;28;6970;-79
2021/03/23 01:05:10;;;;;;;;;;;;;;;9.21;55.48;101882.13;5010872;28;7350;-78
2021/03/23 01:07:36;;;;;;;;;;;;;;;9.20;55.61;101886.44;5004349;28;7286;-78
2021/03/23 01:10:02;;;;;;;;;;;;;;;9.20;55.61;101890.72;5021578;28;8397;-79
2021/03/23 01:12:27;;;;;;;;;;;;;;;9.18;55.60;101880.28;5008813;28;7443;-79
2021/03/23 01:14:53;;;;;;;;;;;;;;;9.17;55.83;101878.50;5022452;28;7212;-78
2021/03/23 01:17:19;;;;;;;;;;;;;;;9.18;55.92;101882.88;5016921;28;8827;-79
2021/03/23 01:19:44;;;;;;;;;;;;;;;9.16;55.83;101876.75;5030317;28;6875;-79
2021/03/23 01:22:10;;;;;;;;;;;;;;;9.15;55.81;101875.84;5029247;28;6971;-79
2021/03/23 01:24:35;;;;;;;;;;;;;;;9.12;55.63;101875.72;5021154;28;6828;-78
2021/03/23 01:27:01;;;;;;;;;;;;;;;9.12;56.09;101880.00;4990794;28;7230;-78
2021/03/23 01:29:28;;;;;;;;;;;;;;;9.12;56.00;101873.13;5020329;28;6987;-78
2021/03/23 01:31:53;;;;;;;;;;;;;;;9.11;56.06;101875.66;4975801;28;8540;-79
2021/03/23 01:34:19;;;;;;;;;;;;;;;9.09;56.15;101878.16;5020739;28;6799;-79
2021/03/23 01:36:44;;;;;;;;;;;;;;;9.09;55.87;101879.88;5019331;28;6798;-79
2021/03/23 01:39:10;;;;;;;;;;;;;;;9.09;56.53;101882.47;5020108;28;7249;-78
2021/03/23 01:41:36;;;;;;;;;;;;;;;9.08;56.21;101878.97;5012098;28;6866;-78
2021/03/23 01:44:01;;;;;;;;;;;;;;;9.07;56.09;101882.41;4992255;28;7189;-79
2021/03/23 01:46:47;;;;;;;;;;;;;;;9.06;56.30;101887.50;4989949;28;7094;-79
2021/03/23 01:49:14;;;;;;;;;;;;;;;9.05;56.39;101872.78;5008727;28;6865;-78
2021/03/23 01:51:40;;;;;;;;;;;;;;;9.05;56.29;101880.53;5004711;28;6811;-79
2021/03/23 01:54:10;;;;;;;;;;;;;;;9.03;56.69;101879.59;4980122;28;8561;-78
2021/03/23 01:56:35;;;;;;;;;;;;;;;9.02;56.30;101880.41;4994750;28;7202;-78
2021/03/23 01:59:02;;;;;;;;;;;;;;;9.01;56.04;101881.19;5017215;28;6860;-78
2021/03/23 02:01:28;;;;;;;;;;;;;;;9.01;56.71;101881.19;4991612;28;8489;-78
2021/03/23 02:03:54;;;;;;;;;;;;;;;8.99;56.32;101878.53;5009130;28;7147;-79
2021/03/23 02:06:46;;;;;;;;;;;;;;;8.99;56.54;101883.72;5004765;28;6799;-79
2021/03/23 02:09:23;;;;;;;;;;;;;;;8.99;56.60;101882.81;4998371;28;11112;-79
2021/03/23 02:11:50;;;;;;;;;;;;;;;8.97;56.66;101882.75;5006066;28;7167;-79
2021/03/23 02:14:16;;;;;;;;;;;;;;;8.96;56.91;101880.97;4993194;28;6815;-79
2021/03/23 02:16:43;;;;;;;;;;;;;;;8.95;56.04;101881.78;5009451;28;7012;-79
2021/03/23 02:19:09;;;;;;;;;;;;;;;8.96;56.46;101885.28;4986156;28;6970;-79
2021/03/23 02:21:34;;;;;;;;;;;;;;;8.95;56.71;101886.09;5004043;28;8764;-79
2021/03/23 02:24:02;;;;;;;;;;;;;;;8.93;56.50;101879.94;4976061;28;8512;-78
2021/03/23 02:26:30;;;;;;;;;;;;;;;8.92;57.03;101879.06;4962439;28;7119;-78
2021/03/23 02:29:09;;;;;;;;;;;;;;;8.92;56.36;101878.19;4995394;28;6796;-78
2021/03/23 02:31:46;;;;;;;;;;;;;;;8.91;57.03;101876.41;5006424;28;7269;-78
2021/03/23 02:34:13;;;;;;;;;;;;;;;8.89;56.83;101871.16;4996499;28;7267;-79
2021/03/23 02:36:40;;;;;;;;;;;;;;;8.89;56.88;101870.25;5007899;28;6877;-78
2021/03/23 02:39:10;;;;;;;;;;;;;;;8.89;56.88;101876.34;4992681;28;7454;-78
2021/03/23 02:41:36;;;;;;;;;;;;;;;8.87;56.66;101877.06;5013053;28;6946;-78
2021/03/23 02:44:02;;;;;;;;;;;;;;;8.85;56.66;101877.00;4995408;28;7258;-78
2021/03/23 02:46:28;;;;;;;;;;;;;;;8.86;56.62;101875.31;4985727;28;7953;-79
2021/03/23 02:48:53;;;;;;;;;;;;;;;8.85;56.73;101874.41;5015070;28;6937;-79
2021/03/23 02:51:19;;;;;;;;;;;;;;;8.83;56.90;101876.94;4996537;28;8510;-79
2021/03/23 02:53:45;;;;;;;;;;;;;;;8.83;56.75;101873.47;4999644;28;7150;-79
2021/03/23 02:56:10;;;;;;;;;;;;;;;8.81;57.01;101881.16;5024761;28;8467;-78
2021/03/23 02:58:36;;;;;;;;;;;;;;;8.82;57.04;101871.69;5009672;28;7000;-79
2021/03/23 03:01:03;;;;;;;;;;;;;;;8.82;56.86;101874.28;5027586;28;7427;-78
2021/03/23 03:03:28;;;;;;;;;;;;;;;8.80;56.91;101873.28;5014616;28;7054;-78
2021/03/23 03:05:54;;;;;;;;;;;;;;;8.80;57.25;101879.34;5028254;28;6855;-78
2021/03/23 03:08:20;;;;;;;;;;;;;;;8.78;56.75;101873.22;5011676;28;7865;-79
2021/03/23 03:10:46;;;;;;;;;;;;;;;8.77;56.76;101866.25;5018125;28;6868;-79
2021/03/23 03:13:12;;;;;;;;;;;;;;;8.76;57.05;101869.66;4998722;28;6987;-78
2021/03/23 03:15:37;;;;;;;;;;;;;;;8.76;56.98;101874.84;4991667;28;8595;-79
2021/03/23 03:18:03;;;;;;;;;;;;;;;8.75;57.03;101873.06;5006652;28;6855;-79
2021/03/23 03:20:28;;;;;;;;;;;;;;;8.75;56.96;101883.44;5020860;28;7196;-78
2021/03/23 03:22:54;;;;;;;;;;;;;;;8.75;57.03;101878.25;5021297;28;6788;-78
2021/03/23 03:25:20;;;;;;;;;;;;;;;8.74;57.29;101875.59;5006129;28;7087;-78
2021/03/23 03:27:46;;;;;;;;;;;;;;;8.74;56.87;101870.41;4989520;28;6792;-79
2021/03/23 03:30:23;;;;;;;;;;;;;;;8.73;56.92;101874.69;4984144;28;8495;-79
2021/03/23 03:32:49;;;;;;;;;;;;;;;8.73;57.14;101877.28;5011700;28;6991;-79
2021/03/23 03:35:15;;;;;;;;;;;;;;;8.71;56.91;101876.34;5007471;28;6813;-78
2021/03/23 03:37:40;;;;;;;;;;;;;;;8.71;57.27;101878.03;5021261;28;7636;-78
2021/03/23 03:40:07;;;;;;;;;;;;;;;8.69;57.26;101867.59;5021886;28;7321;-78
2021/03/23 03:42:33;;;;;;;;;;;;;;;8.69;57.41;101875.38;4997152;28;7869;-78
2021/03/23 03:44:59;;;;;;;;;;;;;;;8.68;57.78;101881.38;5007003;28;7505;-78
2021/03/23 03:47:24;;;;;;;;;;;;;;;8.68;57.46;101876.19;5007948;28;7284;-78
2021/03/23 03:49:50;;;;;;;;;;;;;;;8.67;57.05;101874.41;5007710;28;8863;-79
2021/03/23 03:52:16;;;;;;;;;;;;;;;8.68;57.24;101872.72;4998322;28;8632;-78
2021/03/23 03:54:41;;;;;;;;;;;;;;;8.66;57.42;101883.00;5022310;28;6811;-79
2021/03/23 03:57:07;;;;;;;;;;;;;;;8.65;57.52;101876.03;5008971;28;7154;-79
2021/03/23 03:59:32;;;;;;;;;;;;;;;8.65;57.19;101876.03;5020767;28;7062;-79
2021/03/23 04:01:58;;;;;;;;;;;;;;;8.65;57.43;101876.03;5021886;28;6787;-79
2021/03/23 04:04:23;;;;;;;;;;;;;;;8.64;57.24;101870.78;5020387;28;11248;-79
2021/03/23 04:06:49;;;;;;;;;;;;;;;8.63;57.26;101874.19;5003742;28;6990;-79
2021/03/23 04:09:14;;;;;;;;;;;;;;;8.62;57.73;101873.31;5020730;28;7501;-79
2021/03/23 04:11:40;;;;;;;;;;;;;;;8.60;57.53;101867.13;5021506;28;7453;-79
2021/03/23 04:14:06;;;;;;;;;;;;;;;8.61;57.75;101870.63;5004901;28;6852;-79
2021/03/23 04:16:31;;;;;;;;;;;;;;;8.59;57.40;101865.34;5018442;28;6794;-79
2021/03/23 04:18:57;;;;;;;;;;;;;;;8.59;57.46;101867.94;5007329;28;7079;-79
2021/03/23 04:21:22;;;;;;;;;;;;;;;8.60;57.64;101868.84;5019487;28;7314;-79
2021/03/23 04:23:48;;;;;;;;;;;;;;;8.60;57.69;101867.13;4989575;28;7138;-78
2021/03/23 04:26:14;;;;;;;;;;;;;;;8.58;57.47;101868.75;4999733;28;7218;-78
2021/03/23 04:28:39;;;;;;;;;;;;;;;8.58;57.32;101865.28;5021483;28;8192;-79
2021/03/23 04:31:05;;;;;;;;;;;;;;;8.56;57.59;101860.03;4993707;28;7095;-79
2021/03/23 04:33:31;;;;;;;;;;;;;;;8.56;57.33;101859.16;5018638;28;6868;-78
2021/03/23 04:36:01;;;;;;;;;;;;;;;8.56;57.53;101862.63;4990078;28;6859;-78
2021/03/23 04:38:29;;;;;;;;;;;;;;;8.56;57.39;101864.31;5022849;28;11011;-78
2021/03/23 04:40:55;;;;;;;;;;;;;;;8.53;58.13;101860.78;5003354;28;14428;-78
2021/03/23 04:43:31;;;;;;;;;;;;;;;8.53;57.62;101858.19;5019008;28;7067;-78
2021/03/23 04:45:57;;;;;;;;;;;;;;;8.54;57.84;101859.06;5005006;28;11376;-79
2021/03/23 04:48:23;;;;;;;;;;;;;;;8.53;57.73;101860.78;5011048;28;9657;-78
2021/03/23 04:50:48;;;;;;;;;;;;;;;8.54;57.56;101872.03;4996722;28;7242;-78
2021/03/23 04:53:40;;;;;;;;;;;;;;;8.51;57.73;101867.59;5004770;28;7083;-78
2021/03/23 04:56:07;;;;;;;;;;;;;;;8.51;57.56;101866.69;4986907;28;12518;-78
2021/03/23 04:58:32;;;;;;;;;;;;;;;8.50;57.89;101865.81;4998469;28;6831;-79
2021/03/23 05:00:58;;;;;;;;;;;;;;;8.49;58.24;101871.81;5021514;28;6993;-79
2021/03/23 05:03:28;;;;;;;;;;;;;;;8.51;57.65;101869.28;5020817;28;7324;-79
2021/03/23 05:05:55;;;;;;;;;;;;;;;8.50;58.12;101877.88;5010010;28;7580;-78
2021/03/23 05:08:21;;;;;;;;;;;;;;;8.49;58.05;101879.56;5019787;28;7294;-78
2021/03/23 05:10:47;;;;;;;;;;;;;;;8.49;58.03;101878.69;5020676;28;7334;-78
2021/03/23 05:13:12;;;;;;;;;;;;;;;8.50;58.32;101877.88;4991742;28;6788;-77
2021/03/23 05:15:38;;;;;;;;;;;;;;;8.49;58.30;101878.69;5017348;28;6788;-78
2021/03/23 05:18:03;;;;;;;;;;;;;;;8.49;58.47;101881.28;5019812;28;7198;-75
2021/03/23 05:20:29;;;;;;;;;;;;;;;8.50;58.01;101871.00;5014994;28;7075;-74
2021/03/23 05:22:54;;;;;;;;;;;;;;;8.51;58.23;101871.88;5004786;28;6988;-74
2021/03/23 05:25:20;;;;;;;;;;;;;;;8.54;58.21;101872.03;5011807;28;6934;-73
2021/03/23 05:27:45;;;;;;;;;;;;;;;8.54;58.27;101879.78;5015022;28;7254;-74
2021/03/23 05:30:12;;;;;;;;;;;;;;;8.56;58.12;101879.88;5016220;28;6804;-76
2021/03/23 05:32:37;;;;;;;;;;;;;;;8.58;58.27;101876.53;4988641;28;7269;-78
2021/03/23 05:35:06;;;;;;;;;;;;;;;8.59;58.14;101875.72;5008628;28;7194;-79
2021/03/23 05:37:32;;;;;;;;;;;;;;;8.61;57.83;101870.63;5002555;28;6800;-78
2021/03/23 05:39:58;;;;;;;;;;;;;;;8.60;57.81;101877.50;5003360;28;8486;-78
2021/03/23 05:42:41;;;;;;;;;;;;;;;8.59;57.60;101878.31;5002441;28;8538;-78
2021/03/23 05:45:14;;;;;;;;;;;;;;;8.61;58.24;101880.97;4999726;28;11608;-78
2021/03/23 05:47:43;;;;;;;;;;;;;;;8.61;57.82;101884.47;4990844;28;7152;-79
2021/03/23 05:50:23;;;;;;;;;;;;;;;8.63;58.10;101884.56;5015030;28;7250;-78
2021/03/23 05:52:55;;;;;;;;;;;;;;;8.71;58.15;101878.91;5017746;28;7762;-79
2021/03/23 05:55:27;;;;;;;;;;;;;;;8.72;58.53;101867.75;4987560;28;8057;-77
2021/03/23 05:57:52;;;;;;;;;;;;;;;8.72;58.63;101877.22;5006429;28;7356;-77
2021/03/23 06:00:27;;;;;;;;;;;;;;;8.71;58.30;101871.16;5001176;28;6883;-77
2021/03/23 06:03:16;;;;;;;;;;;;;;;8.71;58.54;101876.34;4999646;28;6991;-76
2021/03/23 06:05:53;;;;;;;;;;;;;;;8.72;58.57;101885.88;5013829;28;13096;-75
2021/03/23 06:08:27;;;;;;;;;;;;;;;8.72;58.24;101880.69;5003233;28;7425;-76
2021/03/23 06:11:04;;;;;;;;;;;;;;;8.75;58.42;101880.84;4993075;28;8454;-75
2021/03/23 06:13:42;;;;;;;;;;;;;;;8.79;57.99;101884.47;5017749;28;11226;-75
2021/03/23 06:16:35;;;;;;;;;;;;;;;8.80;57.74;101889.72;4978021;28;12560;-75
2021/03/23 06:19:25;;;;;;;;;;;;;;;8.82;57.68;101893.28;5010300;28;11302;-75
2021/03/23 06:22:15;;;;;;;;;;;;;;;8.84;57.84;101899.44;4969890;28;11523;-76
2021/03/23 06:24:59;;;;;;;;;;;;;;;8.86;57.99;101901.22;5002551;28;13116;-76
2021/03/23 06:27:30;;;;;;;;;;;;;;;8.88;57.82;101903.06;4996103;28;8563;-75
2021/03/23 06:29:58;;;;;;;;;;;;;;;8.90;58.14;101900.53;4996297;28;7827;-76
2021/03/23 06:32:59;;;;;;;;;;;;;;;8.92;57.70;101904.09;5015984;28;7058;-76
2021/03/23 06:35:45;;;;;;;;;;;;;;;8.96;57.29;101914.66;5000655;28;11615;-75
2021/03/23 06:38:23;;;;;;;;;;;;;;;9.00;57.42;101913.09;4992921;28;11158;-76
2021/03/23 06:41:07;;;;;;;;;;;;;;;9.03;57.44;101915.88;5003244;28;7286;-76
2021/03/23 06:43:32;;;;;;;;;;;;;;;9.06;57.38;101914.31;5018965;28;11163;-76
2021/03/23 06:46:05;;;;;;;;;;;;;;;9.11;57.10;101914.50;5002809;28;6795;-76
2021/03/23 06:48:32;;;;;;;;;;;;;;;9.15;57.02;101922.50;5017892;28;11002;-76
2021/03/23 06:51:12;;;;;;;;;;;;;;;9.20;56.84;101920.13;4985350;28;11011;-75
2021/03/23 06:53:37;;;;;;;;;;;;;;;9.25;56.84;101926.44;4998755;28;11141;-75
2021/03/23 06:56:16;;;;;;;;;;;;;;;9.29;56.84;101925.75;4994065;28;6879;-75
2021/03/23 06:58:42;;;;;;;;;;;;;;;9.35;56.58;101936.41;5002146;28;6954;-75
2021/03/23 07:01:21;;;;;;;;;;;;;;;9.37;56.44;101942.53;4999255;28;6795;-75
2021/03/23 07:03:56;;;;;;;;;;;;;;;9.41;56.29;101940.97;4985595;28;7395;-76
2021/03/23 07:06:24;;;;;;;;;;;;;;;9.43;56.14;101941.97;4983108;28;7569;-75
2021/03/23 07:09:08;;;;;;;;;;;;;;;9.49;56.16;101944.84;4984271;28;7004;-76
2021/03/23 07:11:52;;;;;;;;;;;;;;;9.52;55.76;101950.16;5015735;28;11381;-76
2021/03/23 07:14:34;;;;;;;;;;;;;;;9.55;56.53;101944.22;5013205;28;11127;-76
2021/03/23 07:17:01;;;;;;;;;;;;;;;9.55;56.00;101939.91;5020328;28;7356;-76
2021/03/23 07:19:26;;;;;;;;;;;;;;;9.57;55.96;101942.59;5003139;28;6799;-76
2021/03/23 07:21:59;;;;;;;;;;;;;;;9.62;55.74;101934.22;5001622;28;7138;-76
2021/03/23 07:24:32;;;;;;;;;;;;;;;9.69;56.20;101933.69;5001311;28;6807;-75
2021/03/23 07:27:01;;;;;;;;;;;;;;;9.83;55.33;101933.44;4982973;28;8585;-76
2021/03/23 07:29:28;;;;;;;;;;;;;;;9.90;55.51;101932.88;5000863;28;7514;-76
2021/03/23 07:32:31;;;;;;;;;;;;;;;9.99;55.41;101928.06;5015262;28;7703;-75
2021/03/23 07:35:22;;;;;;;;;;;;;;;10.07;54.60;101935.41;5014078;28;11179;-75
2021/03/23 07:38:05;;;;;;;;;;;;;;;10.18;53.99;101925.47;5018176;28;13120;-76
2021/03/23 07:40:41;;;;;;;;;;;;;;;10.33;54.05;101925.28;5001836;28;7053;-75
2021/03/23 07:43:25;;;;;;;;;;;;;;;10.40;53.95;101924.72;4982594;28;10979;-75
2021/03/23 07:46:06;;;;;;;;;;;;;;;10.54;53.38;101931.38;5017364;28;10965;-76
2021/03/23 07:48:44;;;;;;;;;;;;;;;10.70;53.13;101940.72;5002916;28;7444;-75
2021/03/23 07:51:16;;;;;;;;;;;;;;;10.86;53.06;101940.53;4982599;28;12306;-75
2021/03/23 07:53:42;;;;;;;;;;;;;;;11.02;52.38;101935.97;5003176;28;7257;-76
2021/03/23 07:56:18;;;;;;;;;;;;;;;11.13;52.18;101948.53;4990432;28;6847;-76
2021/03/23 07:58:59;;;;;;;;;;;;;;;11.16;51.43;101948.66;5002532;28;11064;-76
2021/03/23 08:01:43;;;;;;;;;;;;;;;11.19;52.03;101958.28;5017433;28;6816;-76
2021/03/23 08:04:12;;;;;;;;;;;;;;;11.31;51.21;101961.38;4981497;28;11389;-76
2021/03/23 08:07:08;;;;;;;;;;;;;;;11.41;50.96;101966.13;5003976;28;7934;-76
2021/03/23 08:09:58;;;;;;;;;;;;;;;11.51;51.00;101973.47;5015743;28;11255;-75
2021/03/23 08:12:58;;;;;;;;;;;;;;;11.56;50.41;101963.22;5014212;28;11232;-76
2021/03/23 08:15:30;;;;;;;;;;;;;;;11.64;50.50;101961.81;5014541;28;11581;-76
2021/03/23 08:18:37;;;;;;;;;;;;;;;11.74;50.20;101957.84;4999931;28;7530;-75
2021/03/23 08:21:41;;;;;;;;;;;;;;;11.83;50.15;101969.53;4906938;29;11284;-76
2021/03/23 08:24:16;;;;;;;;;;;;;;;11.94;50.31;101969.91;5016045;28;11082;-76
2021/03/23 08:27:06;;;;;;;;;;;;;;;12.02;50.20;101967.63;5016532;28;11149;-76
2021/03/23 08:29:54;;;;;;;;;;;;;;;12.17;48.99;101973.34;5013580;28;6811;-76
2021/03/23 08:32:40;;;;;;;;;;;;;;;12.28;48.80;101984.16;4996558;28;11176;-76
2021/03/23 08:35:19;;;;;;;;;;;;;;;12.33;49.23;101967.88;5010446;28;11080;-76
2021/03/23 08:38:28;;;;;;;;;;;;;;;12.48;48.37;101977.94;4986195;28;11401;-76
2021/03/23 08:41:07;;;;;;;;;;;;;;;12.58;48.04;101979.13;5014763;28;10970;-76
2021/03/23 08:43:41;;;;;;;;;;;;;;;12.71;47.70;101976.13;5017683;28;8427;-75
2021/03/23 08:46:15;;;;;;;;;;;;;;;12.87;48.03;101975.81;4996739;28;13055;-76
2021/03/23 08:48:47;;;;;;;;;;;;;;;12.97;47.86;101971.78;4988212;28;11134;-76
2021/03/23 08:51:14;;;;;;;;;;;;;;;13.02;47.44;101973.72;5018311;28;7320;-76
2021/03/23 08:53:54;;;;;;;;;;;;;;;13.11;47.33;101973.13;5014190;28;6806;-76
2021/03/23 08:56:41;;;;;;;;;;;;;;;13.25;47.12;101969.28;5011974;28;11358;-76
2021/03/23 08:59:35;;;;;;;;;;;;;;;13.48;46.57;101980.44;5013427;28;12278;-75
2021/03/23 09:02:07;;;;;;;;;;;;;;;13.59;45.79;101978.13;4993790;28;11386;-76
2021/03/23 09:04:36;;;;;;;;;;;;;;;13.61;46.02;101977.34;5000877;28;7014;-76
2021/03/23 09:07:17;;;;;;;;;;;;;;;13.60;45.83;101979.91;4990231;28;6815;-76
2021/03/23 09:09:50;;;;;;;;;;;;;;;13.61;46.13;101982.56;4993336;28;13831;-76
2021/03/23 09:12:49;;;;;;;;;;;;;;;13.64;46.23;101982.66;5002460;28;6808;-76
2021/03/23 09:15:26;;;;;;;;;;;;;;;13.73;46.14;101975.94;4975627;28;12539;-76
2021/03/23 09:18:13;;;;;;;;;;;;;;;13.84;45.31;101962.38;4984880;28;8182;-76
2021/03/23 09:20:39;;;;;;;;;;;;;;;13.92;45.40;101967.81;4997777;28;12963;-76
2021/03/23 09:23:24;;;;;;;;;;;;;;;14.00;45.53;101966.28;5002045;28;7483;-76
2021/03/23 09:26:02;;;;;;;;;;;;;;;14.17;44.89;101969.38;5013031;28;11336;-76
2021/03/23 09:28:31;;;;;;;;;;;;;;;14.36;44.87;101963.81;5002083;28;7036;-76
2021/03/23 09:31:07;;;;;;;;;;;;;;;14.52;44.27;101957.31;5014570;28;7429;-76
2021/03/23 09:33:42;;;;;;;;;;;;;;;14.70;43.86;101957.81;4989814;28;7026;-76
2021/03/23 09:38:44;;;;;;;;;;;;;;;15.08;43.43;101950.03;5014715;28;6752;-76
2021/03/23 09:41:22;;;;;;;;;;;;;;;15.23;42.75;101950.38;5006070;28;11372;-76
2021/03/23 09:43:52;;;;;;;;;;;;;;;15.39;42.59;101951.59;5018494;28;11284;-76
2021/03/23 09:46:39;;;;;;;;;;;;;;;15.50;42.54;101951.00;4992664;28;8444;-76
2021/03/23 09:49:11;;;;;;;;;;;;;;;15.61;42.09;101951.25;5017187;28;7576;-76
2021/03/23 09:51:43;;;;;;;;;;;;;;;15.73;41.80;101945.41;5017500;28;8041;-76
2021/03/23 09:54:53;;;;;;;;;;;;;;;15.81;41.46;101946.44;4982952;28;11293;-76
2021/03/23 09:57:20;;;;;;;;;;;;;;;15.95;41.55;101934.50;5017035;28;12540;-76
2021/03/23 09:59:47;;;;;;;;;;;;;;;16.16;41.10;101935.78;5021843;28;7453;-76
2021/03/23 10:02:26;;;;;;;;;;;;;;;16.36;40.40;101942.28;4993789;28;7258;-76
2021/03/23 10:04:52;;;;;;;;;;;;;;;16.53;40.27;101943.50;5017184;28;7301;-76
2021/03/23 10:07:37;;;;;;;;;;;;;;;16.79;39.58;101941.34;5006996;28;7661;-76
2021/03/23 10:10:10;;;;;;;;;;;;;;;16.88;39.83;101932.75;4994539;28;7013;-76
2021/03/23 10:12:35;;;;;;;;;;;;;;;16.97;39.46;101931.16;5008517;28;7337;-75
2021/03/23 10:15:35;;;;;;;;;;;;;;;17.16;39.26;101932.31;5018561;28;7331;-76
2021/03/23 10:21:07;;;;;;;;;;;;;;;17.60;38.59;101930.31;5063879;23;7198;-76
2021/03/23 10:23:41;;;;;;;;;;;;;;;17.67;38.42;101930.41;5014362;28;7327;-76
2021/03/23 10:26:06;;;;;;;;;;;;;;;17.76;38.06;101923.53;4984754;28;7294;-76
2021/03/23 10:28:38;;;;;;;;;;;;;;;17.91;38.17;101914.97;4983317;28;6978;-75
2021/03/23 10:31:06;;;;;;;;;;;;;;;18.05;37.50;101915.13;5003971;28;6973;-76
2021/03/23 10:33:35;;;;;;;;;;;;;;;18.16;37.67;101913.50;5020051;28;7281;-76
2021/03/23 10:36:08;;;;;;;;;;;;;;;18.20;37.61;101907.38;4975788;28;7006;-76
2021/03/23 10:38:39;;;;;;;;;;;;;;;18.39;37.25;101911.97;5005611;28;7326;-76
2021/03/23 10:41:20;;;;;;;;;;;;;;;18.54;36.81;101909.50;4976204;28;7704;-75
2021/03/23 10:43:47;;;;;;;;;;;;;;;18.59;36.85;101903.38;5009111;28;12073;-76
2021/03/23 10:46:37;;;;;;;;;;;;;;;18.78;36.79;101900.94;4996839;28;7465;-76
2021/03/23 10:49:15;;;;;;;;;;;;;;;18.99;36.03;101905.50;5019426;28;11082;-76
2021/03/23 10:51:43;;;;;;;;;;;;;;;19.18;35.73;101900.34;5006709;28;11077;-75
2021/03/23 10:54:12;;;;;;;;;;;;;;;19.39;35.54;101898.72;5004729;28;7405;-76
2021/03/23 10:56:39;;;;;;;;;;;;;;;19.57;35.24;101900.59;5022035;28;6826;-76
2021/03/23 10:59:10;;;;;;;;;;;;;;;19.75;34.98;101890.13;4992186;28;6791;-76
2021/03/23 11:01:55;;;;;;;;;;;;;;;19.94;34.51;101885.78;5007706;28;6828;-76
2021/03/23 11:04:20;;;;;;;;;;;;;;;20.18;34.26;101884.97;5019205;28;11044;-76
2021/03/23 11:06:48;;;;;;;;;;;;;;;20.36;33.68;101885.00;5006077;28;7119;-75
2021/03/23 11:09:17;;;;;;;;;;;;;;;20.55;33.83;101885.91;5012711;28;6797;-76
2021/03/23 11:11:43;;;;;;;;;;;;;;;20.70;33.29;101882.41;5023717;28;11841;-80
2021/03/23 11:14:09;;;;;;;;;;;;;;;20.86;33.56;101883.28;5011597;28;6795;-78
2021/03/23 11:16:36;;;;;;;;;;;;;;;20.91;32.81;101890.31;5013784;28;7146;-78
2021/03/23 11:19:02;;;;;;;;;;;;;;;20.95;32.90;101889.41;4973594;28;8577;-79
2021/03/23 11:21:32;;;;;;;;;;;;;;;21.07;32.84;101885.00;4995981;28;7275;-79
2021/03/23 11:23:57;;;;;;;;;;;;;;;21.11;32.98;101881.47;4982338;28;7528;-78
2021/03/23 11:26:27;;;;;;;;;;;;;;;21.20;32.67;101877.03;4990413;28;8573;-79
2021/03/23 11:28:54;;;;;;;;;;;;;;;21.32;32.72;101872.63;5026049;28;7333;-78
2021/03/23 11:31:20;;;;;;;;;;;;;;;21.39;32.40;101864.69;5009963;28;7022;-78
2021/03/23 11:33:46;;;;;;;;;;;;;;;21.45;32.55;101869.97;4994287;28;8534;-78
2021/03/23 11:36:11;;;;;;;;;;;;;;;21.43;32.18;101863.81;5011975;28;6875;-78
2021/03/23 11:38:38;;;;;;;;;;;;;;;21.31;32.53;101858.56;5011449;28;6799;-79
2021/03/23 11:41:09;;;;;;;;;;;;;;;21.22;32.93;101864.72;4988390;28;8462;-79
2021/03/23 11:43:43;;;;;;;;;;;;;;;21.16;33.13;101859.44;4987696;28;8057;-78
2021/03/23 11:46:11;;;;;;;;;;;;;;;21.23;33.14;101852.38;5000629;28;6886;-78
2021/03/23 11:48:43;;;;;;;;;;;;;;;21.28;32.89;101855.91;5009582;28;7071;-78
2021/03/23 11:51:09;;;;;;;;;;;;;;;21.29;33.13;101854.16;5025788;28;6851;-79
2021/03/23 11:53:34;;;;;;;;;;;;;;;21.21;33.35;101848.84;5025438;28;6849;-78
2021/03/23 11:56:00;;;;;;;;;;;;;;;21.16;33.24;101853.28;5014214;28;7178;-79
2021/03/23 11:58:26;;;;;;;;;;;;;;;21.15;33.55;101854.16;4998655;28;6832;-78
2021/03/23 12:00:52;;;;;;;;;;;;;;;21.19;33.07;101855.91;5028106;28;7722;-79
2021/03/23 12:03:21;;;;;;;;;;;;;;;21.24;33.11;101848.91;5013027;28;7277;-79
2021/03/23 12:05:47;;;;;;;;;;;;;;;21.26;33.00;101855.06;5018916;28;6812;-79
2021/03/23 12:08:40;;;;;;;;;;;;;;;21.25;33.42;101853.31;5018963;28;7503;-77
2021/03/23 12:11:33;;;;;;;;;;;;;;;21.35;33.40;101843.56;5007759;28;11148;-78
2021/03/23 12:14:18;;;;;;;;;;;;;;;21.45;32.88;101845.28;5018096;28;10930;-77
2021/03/23 12:16:47;;;;;;;;;;;;;;;21.60;32.80;101831.97;5019600;28;11014;-77
2021/03/23 12:19:13;;;;;;;;;;;;;;;21.59;32.67;101838.16;4993274;28;11251;-75
2021/03/23 12:21:39;;;;;;;;;;;;;;;21.58;32.82;101840.81;5007553;28;7569;-78
2021/03/23 12:24:05;;;;;;;;;;;;;;;21.52;33.25;101836.44;4986833;28;7235;-77
2021/03/23 12:26:31;;;;;;;;;;;;;;;21.51;32.98;101846.13;5016542;28;7218;-74
2021/03/23 12:28:57;;;;;;;;;;;;;;;21.44;33.26;101839.13;5016514;28;6815;-75
2021/03/23 12:31:22;;;;;;;;;;;;;;;21.42;32.99;101838.22;5016020;28;8226;-77
2021/03/23 12:33:48;;;;;;;;;;;;;;;21.43;33.12;101831.22;5001465;28;6835;-77
2021/03/23 12:36:14;;;;;;;;;;;;;;;21.52;33.05;101831.16;5019120;28;7110;-76
2021/03/23 12:38:41;;;;;;;;;;;;;;;21.60;33.43;101837.28;4988888;28;7112;-78
2021/03/23 12:41:13;;;;;;;;;;;;;;;21.59;32.73;101834.63;4993878;28;7294;-74
2021/03/23 12:43:41;;;;;;;;;;;;;;;21.58;32.91;101827.59;5004657;28;6804;-77
2021/03/23 12:46:07;;;;;;;;;;;;;;;21.54;33.33;101830.25;5014704;28;7345;-77
2021/03/23 12:48:33;;;;;;;;;;;;;;;21.50;33.87;101827.66;5015300;28;6810;-77
2021/03/23 12:50:58;;;;;;;;;;;;;;;21.51;33.33;101826.75;5018072;28;7112;-77
2021/03/23 12:53:24;;;;;;;;;;;;;;;21.53;32.98;101831.16;5016079;28;7079;-76
2021/03/23 12:55:51;;;;;;;;;;;;;;;21.58;32.99;101824.94;5001915;28;6811;-76
2021/03/23 12:58:24;;;;;;;;;;;;;;;21.57;33.18;101824.06;4988778;28;9936;-75
2021/03/23 13:00:50;;;;;;;;;;;;;;;21.62;33.32;101830.22;4999160;28;11086;-76
2021/03/23 13:03:17;;;;;;;;;;;;;;;21.72;32.86;101831.06;4988727;28;7489;-75
2021/03/23 13:05:42;;;;;;;;;;;;;;;21.81;32.45;101831.88;5002614;28;6938;-75
2021/03/23 13:08:34;;;;;;;;;;;;;;;21.88;32.98;101822.16;5000365;28;7517;-78
2021/03/23 13:11:17;;;;;;;;;;;;;;;21.96;32.47;101822.09;4993987;28;10931;-77
2021/03/23 13:13:48;;;;;;;;;;;;;;;22.17;32.18;101821.97;5002455;28;8886;-78
2021/03/23 13:16:14;;;;;;;;;;;;;;;22.50;31.76;101820.81;5000994;28;6788;-77
2021/03/23 13:18:39;;;;;;;;;;;;;;;22.83;30.79;101810.84;4987744;28;6971;-78